Main page
METAR-TAF:

METAR-TAF

Airports :

Kingston/Norman Rogers Airport

Kingston, Ontario, Canada

latitude: 44-13N, longitude: 076-36W, elevation: 305 ft

Current weather observation

The report was made 26 minutes ago, at 02:00 UTC
Wind 7 mph from the West
Temperature 18°F
Humidity 73%
Pressure 30.45 in. Hg
Visibility: 15 miles
Few clouds at a height of 3000 ft

METAR: CYGK 080200Z 28006KT 15SM FEW030 M08/M12 A3045 RMK SC1 SC TR SLP320

Time: 21:26 (02:26 UTC)

Forecast

The report was made 48 minutes ago, at 01:38 UTC
Forecast valid from 08 at 02 UTC to 08 at 04 UTC
Wind 8 mph from the West
Visibility: 6 miles
Few clouds at a height of 3000 ft

TAF: CYGK 080138Z 0802/0804 28007KT P6SM FEW030 RMK NXT FCST WILL BE ISSUED AT 081245Z

Weather observations and forecasts of more than 4000 airports (METAR and TAF reports).

The available stations are represented by yellow and red dots on the map.

Hover mouse over dot to see the name of the station.

Then click to see weather observations and forecasts.

To change the map : click on the green buttons with a black cross to zoom in, on the green button with a dash to zoom out, or on the green arrows for adjacent maps.


METAR-TAF: